Time,TemperatureF,DewpointF,PressureIn,WindDirection,WindDirectionDegrees,WindSpeedMPH,WindSpeedGustMPH,Humidity,HourlyPrecipIn,Conditions,Clouds,dailyrainin,SoftwareType,DateUTC
2013-02-17 00:01:00,32.7,28.1,29.86,ESE,113,0.0,0.0,83,0.00,,,0.00,WUHU215HW,2013-02-17 07:01:00,
2013-02-17 00:06:00,32.5,27.9,29.86,ESE,113,0.0,0.0,83,0.00,,,0.00,WUHU215HW,2013-02-17 07:06:00,
2013-02-17 00:11:00,32.5,27.9,29.85,ESE,113,0.0,0.0,83,0.00,,,0.00,WUHU215HW,2013-02-17 07:11:00,
2013-02-17 00:16:00,32.3,28.0,29.85,ESE,113,0.0,0.0,84,0.00,,,0.00,WUHU215HW,2013-02-17 07:16:00,
2013-02-17 00:21:00,32.3,27.7,29.85,ESE,113,0.0,0.0,83,0.00,,,0.00,WUHU215HW,2013-02-17 07:21:00,
2013-02-17 00:26:00,32.1,27.6,29.85,ESE,113,0.0,0.0,83,0.00,,,0.00,WUHU215HW,2013-02-17 07:26:00,
2013-02-17 00:31:00,32.1,27.6,29.85,ESE,113,0.0,0.0,83,0.00,,,0.00,WUHU215HW,2013-02-17 07:31:00,
2013-02-17 00:36:00,32.1,27.9,29.85,ESE,113,0.0,0.0,84,0.00,,,0.00,WUHU215HW,2013-02-17 07:36:00,
2013-02-17 00:41:00,32.1,27.9,29.85,ESE,113,0.0,0.0,84,0.00,,,0.00,WUHU215HW,2013-02-17 07:41:00,
2013-02-17 00:46:00,31.8,27.5,29.84,ESE,113,0.0,0.0,84,0.00,,,0.00,WUHU215HW,2013-02-17 07:46:00,
2013-02-17 00:51:00,31.8,27.5,29.85,ESE,113,0.0,0.0,84,0.00,,,0.00,WUHU215HW,2013-02-17 07:51:00,
2013-02-17 00:56:00,31.8,27.5,29.85,ESE,113,0.0,0.0,84,0.00,,,0.00,WUHU215HW,2013-02-17 07:56:00,
2013-02-17 01:01:00,31.8,27.5,29.85,ESE,113,0.0,0.0,84,0.00,,,0.00,WUHU215HW,2013-02-17 08:01:00,
2013-02-17 01:06:00,31.8,27.5,29.86,ESE,113,0.0,0.0,84,0.00,,,0.00,WUHU215HW,2013-02-17 08:06:00,
2013-02-17 01:11:00,31.8,27.5,29.85,ESE,113,0.0,0.0,84,0.00,,,0.00,WUHU215HW,2013-02-17 08:11:00,
2013-02-17 01:16:00,31.6,27.3,29.85,ESE,113,0.0,0.0,84,0.00,,,0.00,WUHU215HW,2013-02-17 08:16:00,
2013-02-17 01:21:00,31.6,27.3,29.85,ESE,113,0.0,0.0,84,0.00,,,0.00,WUHU215HW,2013-02-17 08:21:00,
2013-02-17 01:26:00,31.4,27.2,29.85,ESE,113,0.0,0.0,84,0.00,,,0.00,WUHU215HW,2013-02-17 08:26:00,
2013-02-17 01:31:00,31.1,26.8,29.85,ESE,113,0.0,0.0,84,0.00,,,0.00,WUHU215HW,2013-02-17 08:31:00,
2013-02-17 01:36:00,30.9,26.6,29.85,ESE,113,0.0,0.0,84,0.00,,,0.00,WUHU215HW,2013-02-17 08:36:00,
2013-02-17 01:41:00,30.7,26.4,29.85,ESE,113,0.0,0.0,84,0.00,,,0.00,WUHU215HW,2013-02-17 08:41:00,
2013-02-17 01:46:00,30.5,26.3,29.84,ESE,113,0.0,0.0,84,0.00,,,0.00,WUHU215HW,2013-02-17 08:46:00,
2013-02-17 01:51:00,30.5,26.3,29.84,ESE,113,0.0,0.0,84,0.00,,,0.00,WUHU215HW,2013-02-17 08:51:00,
2013-02-17 01:56:00,30.5,26.3,29.84,ESE,113,0.0,0.0,84,0.00,,,0.00,WUHU215HW,2013-02-17 08:56:00,
2013-02-17 02:01:00,30.5,26.6,29.84,ESE,113,0.0,0.0,85,0.00,,,0.00,WUHU215HW,2013-02-17 09:01:00,
2013-02-17 02:06:00,30.5,26.6,29.84,ESE,113,0.0,0.0,85,0.00,,,0.00,WUHU215HW,2013-02-17 09:06:00,
2013-02-17 02:11:00,30.3,26.1,29.84,ESE,113,0.0,0.0,84,0.00,,,0.00,WUHU215HW,2013-02-17 09:11:00,
2013-02-17 02:16:00,30.0,25.7,29.84,ESE,113,0.0,0.0,84,0.00,,,0.00,WUHU215HW,2013-02-17 09:16:00,
2013-02-17 02:21:00,29.4,25.2,29.84,ESE,113,0.0,0.0,84,0.00,,,0.00,WUHU215HW,2013-02-17 09:21:00,
2013-02-17 02:26:00,29.3,25.0,29.84,ESE,113,0.0,0.0,84,0.00,,,0.00,WUHU215HW,2013-02-17 09:26:00,
2013-02-17 02:31:00,28.9,24.6,29.84,ESE,113,0.0,0.0,84,0.00,,,0.00,WUHU215HW,2013-02-17 09:31:00,
2013-02-17 02:36:00,28.7,24.5,29.85,ESE,113,0.0,0.0,84,0.00,,,0.00,WUHU215HW,2013-02-17 09:36:00,
2013-02-17 02:41:00,28.5,24.3,29.85,ESE,113,0.0,0.0,84,0.00,,,0.00,WUHU215HW,2013-02-17 09:41:00,
2013-02-17 02:46:00,28.2,24.2,29.85,ESE,113,0.0,0.0,85,0.00,,,0.00,WUHU215HW,2013-02-17 09:46:00,
2013-02-17 02:51:00,28.2,24.2,29.84,ESE,113,0.0,0.0,85,0.00,,,0.00,WUHU215HW,2013-02-17 09:51:00,
2013-02-17 02:56:00,28.0,24.0,29.84,ESE,113,0.0,0.0,85,0.00,,,0.00,WUHU215HW,2013-02-17 09:56:00,
2013-02-17 03:01:00,28.0,24.0,29.84,ESE,113,0.0,0.0,85,0.00,,,0.00,WUHU215HW,2013-02-17 10:01:00,
2013-02-17 03:06:00,27.6,23.7,29.84,ESE,113,0.0,0.0,85,0.00,,,0.00,WUHU215HW,2013-02-17 10:06:00,
2013-02-17 03:11:00,27.6,23.7,29.84,ESE,113,0.0,0.0,85,0.00,,,0.00,WUHU215HW,2013-02-17 10:11:00,
2013-02-17 03:16:00,27.5,23.5,29.84,ESE,113,0.0,0.0,85,0.00,,,0.00,WUHU215HW,2013-02-17 10:16:00,
2013-02-17 03:21:00,27.6,23.7,29.84,ESE,113,0.0,0.0,85,0.00,,,0.00,WUHU215HW,2013-02-17 10:21:00,
2013-02-17 03:26:00,27.5,23.5,29.84,ESE,113,0.0,0.0,85,0.00,,,0.00,WUHU215HW,2013-02-17 10:26:00,
2013-02-17 03:31:00,27.3,23.3,29.83,ESE,113,0.0,0.0,85,0.00,,,0.00,WUHU215HW,2013-02-17 10:31:00,
2013-02-17 03:36:00,27.3,23.3,29.83,ESE,113,0.0,0.0,85,0.00,,,0.00,WUHU215HW,2013-02-17 10:36:00,
2013-02-17 03:41:00,27.3,23.3,29.84,ESE,113,0.0,0.0,85,0.00,,,0.00,WUHU215HW,2013-02-17 10:41:00,
2013-02-17 03:46:00,27.1,23.4,29.83,ESE,113,0.0,0.0,86,0.00,,,0.00,WUHU215HW,2013-02-17 10:46:00,
2013-02-17 03:51:00,27.1,23.4,29.83,ESE,113,0.0,0.0,86,0.00,,,0.00,WUHU215HW,2013-02-17 10:51:00,
2013-02-17 03:56:00,26.7,23.1,29.83,ESE,113,0.0,0.0,86,0.00,,,0.00,WUHU215HW,2013-02-17 10:56:00,
2013-02-17 04:01:00,26.4,22.7,29.83,ESE,113,0.0,0.0,86,0.00,,,0.00,WUHU215HW,2013-02-17 11:01:00,
2013-02-17 04:06:00,26.2,22.5,29.83,ESE,113,0.0,0.0,86,0.00,,,0.00,WUHU215HW,2013-02-17 11:06:00,
2013-02-17 04:11:00,26.2,22.5,29.83,ESE,113,0.0,0.0,86,0.00,,,0.00,WUHU215HW,2013-02-17 11:11:00,
2013-02-17 04:16:00,26.2,22.5,29.83,ESE,113,0.0,0.0,86,0.00,,,0.00,WUHU215HW,2013-02-17 11:16:00,
2013-02-17 04:21:00,26.2,22.5,29.83,ESE,113,0.0,0.0,86,0.00,,,0.00,WUHU215HW,2013-02-17 11:21:00,
2013-02-17 04:26:00,25.8,22.2,29.83,ESE,113,0.0,0.0,86,0.00,,,0.00,WUHU215HW,2013-02-17 11:26:00,
2013-02-17 04:31:00,25.8,22.2,29.83,ESE,113,0.0,0.0,86,0.00,,,0.00,WUHU215HW,2013-02-17 11:31:00,
2013-02-17 04:36:00,25.8,22.2,29.83,ESE,113,0.0,0.0,86,0.00,,,0.00,WUHU215HW,2013-02-17 11:36:00,
2013-02-17 04:41:00,25.7,22.0,29.83,ESE,113,0.0,0.0,86,0.00,,,0.00,WUHU215HW,2013-02-17 11:41:00,
2013-02-17 04:46:00,25.7,22.0,29.83,ESE,113,0.0,0.0,86,0.00,,,0.00,WUHU215HW,2013-02-17 11:46:00,
2013-02-17 04:51:00,25.7,22.0,29.83,ESE,113,0.0,0.0,86,0.00,,,0.00,WUHU215HW,2013-02-17 11:51:00,
2013-02-17 04:56:00,25.7,22.0,29.83,ESE,113,0.0,0.0,86,0.00,,,0.00,WUHU215HW,2013-02-17 11:56:00,
2013-02-17 05:01:00,25.8,22.2,29.83,ESE,113,0.0,0.0,86,0.00,,,0.00,WUHU215HW,2013-02-17 12:01:00,
2013-02-17 05:06:00,25.8,22.2,29.83,ESE,113,0.0,0.0,86,0.00,,,0.00,WUHU215HW,2013-02-17 12:06:00,
2013-02-17 05:11:00,25.7,22.0,29.83,ESE,113,0.0,0.0,86,0.00,,,0.00,WUHU215HW,2013-02-17 12:11:00,
2013-02-17 05:16:00,25.5,21.8,29.83,ESE,113,0.0,0.0,86,0.00,,,0.00,WUHU215HW,2013-02-17 12:16:00,
2013-02-17 05:21:00,25.5,21.8,29.83,ESE,113,0.0,0.0,86,0.00,,,0.00,WUHU215HW,2013-02-17 12:21:00,
2013-02-17 05:26:00,25.5,21.8,29.83,ESE,113,0.0,0.0,86,0.00,,,0.00,WUHU215HW,2013-02-17 12:26:00,
2013-02-17 05:31:00,25.1,21.5,29.83,ESE,113,0.0,0.0,86,0.00,,,0.00,WUHU215HW,2013-02-17 12:31:00,
2013-02-17 05:36:00,25.1,21.5,29.84,ESE,113,0.0,0.0,86,0.00,,,0.00,WUHU215HW,2013-02-17 12:36:00,
2013-02-17 05:41:00,25.1,21.2,29.83,ESE,113,0.0,0.0,85,0.00,,,0.00,WUHU215HW,2013-02-17 12:41:00,
2013-02-17 05:46:00,24.6,20.7,29.84,ESE,113,0.0,0.0,85,0.00,,,0.00,WUHU215HW,2013-02-17 12:46:00,
2013-02-17 05:51:00,24.6,20.7,29.84,ESE,113,0.0,0.0,85,0.00,,,0.00,WUHU215HW,2013-02-17 12:51:00,
2013-02-17 05:56:00,24.0,20.2,29.84,ESE,113,0.0,0.0,85,0.00,,,0.00,WUHU215HW,2013-02-17 12:56:00,
2013-02-17 06:01:00,23.9,20.0,29.84,ESE,113,0.0,0.0,85,0.00,,,0.00,WUHU215HW,2013-02-17 13:01:00,
2013-02-17 06:06:00,24.0,20.2,29.84,ESE,113,0.0,0.0,85,0.00,,,0.00,WUHU215HW,2013-02-17 13:06:00,
2013-02-17 06:11:00,24.0,20.2,29.83,ESE,113,0.0,0.0,85,0.00,,,0.00,WUHU215HW,2013-02-17 13:11:00,
2013-02-17 06:16:00,24.2,20.6,29.83,ESE,113,0.0,0.0,86,0.00,,,0.00,WUHU215HW,2013-02-17 13:16:00,
2013-02-17 06:21:00,24.4,20.8,29.84,ESE,113,0.0,0.0,86,0.00,,,0.00,WUHU215HW,2013-02-17 13:21:00,
2013-02-17 06:26:00,24.4,20.8,29.84,ESE,113,0.0,0.0,86,0.00,,,0.00,WUHU215HW,2013-02-17 13:26:00,
2013-02-17 06:31:00,24.6,21.0,29.84,ESE,113,0.0,0.0,86,0.00,,,0.00,WUHU215HW,2013-02-17 13:31:00,
2013-02-17 06:36:00,24.6,21.0,29.83,ESE,113,0.0,0.0,86,0.00,,,0.00,WUHU215HW,2013-02-17 13:36:00,
2013-02-17 06:41:00,24.6,21.0,29.83,ESE,113,0.0,0.0,86,0.00,,,0.00,WUHU215HW,2013-02-17 13:41:00,
2013-02-17 06:46:00,24.6,21.0,29.84,ESE,113,0.0,0.0,86,0.00,,,0.00,WUHU215HW,2013-02-17 13:46:00,
2013-02-17 06:52:00,24.6,21.0,29.84,ESE,113,0.0,0.0,86,0.00,,,0.00,WUHU215HW,2013-02-17 13:52:00,
2013-02-17 06:57:00,24.6,21.0,29.84,ESE,113,0.0,0.0,86,0.00,,,0.00,WUHU215HW,2013-02-17 13:57:00,
2013-02-17 07:02:00,24.8,21.2,29.84,ESE,113,0.0,0.0,86,0.00,,,0.00,WUHU215HW,2013-02-17 14:02:00,
2013-02-17 07:07:00,24.9,21.3,29.85,ESE,113,0.0,0.0,86,0.00,,,0.00,WUHU215HW,2013-02-17 14:07:00,
2013-02-17 07:12:00,24.9,21.3,29.85,ESE,113,0.0,0.0,86,0.00,,,0.00,WUHU215HW,2013-02-17 14:12:00,
2013-02-17 07:17:00,25.1,21.5,29.85,ESE,113,0.0,0.0,86,0.00,,,0.00,WUHU215HW,2013-02-17 14:17:00,
2013-02-17 07:22:00,25.1,21.5,29.85,ESE,113,0.0,0.0,86,0.00,,,0.00,WUHU215HW,2013-02-17 14:22:00,
2013-02-17 07:27:00,25.3,21.7,29.85,ESE,113,0.0,0.0,86,0.00,,,0.00,WUHU215HW,2013-02-17 14:27:00,
2013-02-17 07:32:00,25.3,21.7,29.85,ESE,113,0.0,0.0,86,0.00,,,0.00,WUHU215HW,2013-02-17 14:32:00,
2013-02-17 07:37:00,25.3,21.7,29.85,ESE,113,0.0,0.0,86,0.00,,,0.00,WUHU215HW,2013-02-17 14:37:00,
2013-02-17 07:42:00,25.1,21.5,29.85,ESE,113,0.0,0.0,86,0.00,,,0.00,WUHU215HW,2013-02-17 14:42:00,
2013-02-17 07:47:00,25.3,21.7,29.86,ESE,113,0.0,0.0,86,0.00,,,0.00,WUHU215HW,2013-02-17 14:47:00,
2013-02-17 07:52:00,25.3,21.7,29.86,ESE,113,0.0,0.0,86,0.00,,,0.00,WUHU215HW,2013-02-17 14:52:00,
2013-02-17 07:57:00,25.3,21.7,29.86,ESE,113,0.0,0.0,86,0.00,,,0.00,WUHU215HW,2013-02-17 14:57:00,
2013-02-17 08:02:00,25.3,21.7,29.86,ESE,113,0.0,0.0,86,0.00,,,0.00,WUHU215HW,2013-02-17 15:02:00,
2013-02-17 08:07:00,25.5,21.8,29.86,ESE,113,0.0,0.0,86,0.00,,,0.00,WUHU215HW,2013-02-17 15:07:00,
2013-02-17 08:12:00,25.5,21.8,29.86,ESE,113,0.0,0.0,86,0.00,,,0.00,WUHU215HW,2013-02-17 15:12:00,
2013-02-17 08:17:00,25.5,21.8,29.86,ESE,113,0.0,0.0,86,0.00,,,0.00,WUHU215HW,2013-02-17 15:17:00,
2013-02-17 08:22:00,25.5,21.8,29.86,ESE,113,0.0,0.0,86,0.00,,,0.00,WUHU215HW,2013-02-17 15:22:00,
2013-02-17 08:27:00,25.5,21.8,29.86,ESE,113,0.0,0.0,86,0.00,,,0.00,WUHU215HW,2013-02-17 15:27:00,
2013-02-17 08:32:00,25.5,21.8,29.86,ESE,113,0.0,0.0,86,0.00,,,0.00,WUHU215HW,2013-02-17 15:32:00,
2013-02-17 08:37:00,25.5,21.8,29.86,ESE,113,0.0,0.0,86,0.00,,,0.00,WUHU215HW,2013-02-17 15:37:00,
2013-02-17 08:42:00,25.5,21.8,29.87,ESE,113,0.0,0.0,86,0.00,,,0.00,WUHU215HW,2013-02-17 15:42:00,
2013-02-17 08:47:00,25.7,22.0,29.87,ESE,113,0.0,0.0,86,0.00,,,0.00,WUHU215HW,2013-02-17 15:47:00,
2013-02-17 08:52:00,25.7,22.0,29.87,ESE,113,0.0,0.0,86,0.00,,,0.00,WUHU215HW,2013-02-17 15:52:00,
2013-02-17 08:57:00,25.8,22.2,29.86,ESE,113,0.0,0.0,86,0.00,,,0.00,WUHU215HW,2013-02-17 15:57:00,
2013-02-17 09:02:00,25.8,22.2,29.87,ESE,113,0.0,0.0,86,0.00,,,0.00,WUHU215HW,2013-02-17 16:02:00,
2013-02-17 09:07:00,26.2,22.5,29.87,ESE,113,0.0,0.0,86,0.00,,,0.00,WUHU215HW,2013-02-17 16:07:00,
2013-02-17 09:12:00,26.6,22.9,29.87,ESE,113,0.0,0.0,86,0.00,,,0.00,WUHU215HW,2013-02-17 16:12:00,
2013-02-17 09:17:00,26.7,23.1,29.87,ESE,113,0.0,0.0,86,0.00,,,0.00,WUHU215HW,2013-02-17 16:17:00,
2013-02-17 09:22:00,27.3,23.6,29.87,ESE,113,0.0,0.0,86,0.00,,,0.00,WUHU215HW,2013-02-17 16:22:00,
2013-02-17 09:27:00,27.3,23.6,29.88,ESE,113,0.0,0.0,86,0.00,,,0.00,WUHU215HW,2013-02-17 16:27:00,
2013-02-17 09:32:00,27.6,24.0,29.88,ESE,113,0.0,0.0,86,0.00,,,0.00,WUHU215HW,2013-02-17 16:32:00,
2013-02-17 09:37:00,28.2,24.5,29.88,ESE,113,0.0,0.0,86,0.00,,,0.00,WUHU215HW,2013-02-17 16:37:00,
2013-02-17 09:42:00,29.3,25.9,29.88,ESE,113,0.0,0.0,87,0.00,,,0.00,WUHU215HW,2013-02-17 16:42:00,
2013-02-17 09:47:00,30.9,27.8,29.88,ESE,113,0.0,0.0,88,0.00,,,0.00,WUHU215HW,2013-02-17 16:47:00,
2013-02-17 09:52:00,33.4,29.9,29.88,ESE,113,0.0,0.0,87,0.00,,,0.00,WUHU215HW,2013-02-17 16:52:00,
2013-02-17 09:57:00,34.5,29.2,29.88,ESE,113,0.0,0.0,81,0.00,,,0.00,WUHU215HW,2013-02-17 16:57:00,
2013-02-17 10:02:00,34.3,28.1,29.88,ESE,113,0.0,0.0,78,0.00,,,0.00,WUHU215HW,2013-02-17 17:02:00,
2013-02-17 10:07:00,33.6,27.0,29.88,ESE,113,0.0,0.0,77,0.00,,,0.00,WUHU215HW,2013-02-17 17:07:00,
2013-02-17 10:12:00,33.0,26.6,29.87,ESE,113,0.0,0.0,77,0.00,,,0.00,WUHU215HW,2013-02-17 17:12:00,
2013-02-17 10:17:00,33.2,27.0,29.87,ESE,113,0.0,0.0,78,0.00,,,0.00,WUHU215HW,2013-02-17 17:17:00,
2013-02-17 10:22:00,34.3,27.7,29.87,ESE,113,0.0,0.0,77,0.00,,,0.00,WUHU215HW,2013-02-17 17:22:00,
2013-02-17 10:27:00,34.5,26.6,29.87,ESE,113,0.0,0.0,73,0.00,,,0.00,WUHU215HW,2013-02-17 17:27:00,
2013-02-17 10:32:00,34.3,26.1,29.88,ESE,113,0.0,0.0,72,0.00,,,0.00,WUHU215HW,2013-02-17 17:32:00,
2013-02-17 10:37:00,34.3,25.8,29.88,ESE,113,0.0,0.0,71,0.00,,,0.00,WUHU215HW,2013-02-17 17:37:00,
2013-02-17 10:42:00,33.9,25.4,29.88,ESE,113,0.0,0.0,71,0.00,,,0.00,WUHU215HW,2013-02-17 17:42:00,
2013-02-17 10:47:00,33.8,25.6,29.88,ESE,113,0.0,0.0,72,0.00,,,0.00,WUHU215HW,2013-02-17 17:47:00,
2013-02-17 10:52:00,33.9,25.8,29.88,ESE,113,0.0,0.0,72,0.00,,,0.00,WUHU215HW,2013-02-17 17:52:00,
2013-02-17 10:57:00,34.3,25.5,29.88,ESE,113,0.0,0.0,70,0.00,,,0.00,WUHU215HW,2013-02-17 17:57:00,
2013-02-17 11:02:00,34.7,25.5,29.88,ESE,113,0.0,0.0,69,0.00,,,0.00,WUHU215HW,2013-02-17 18:02:00,
2013-02-17 11:07:00,35.2,25.7,29.88,ESE,113,0.0,0.0,68,0.00,,,0.00,WUHU215HW,2013-02-17 18:07:00,
2013-02-17 11:12:00,35.4,25.1,29.88,ESE,113,0.0,0.0,66,0.00,,,0.00,WUHU215HW,2013-02-17 18:12:00,
2013-02-17 11:17:00,35.9,25.6,29.88,ESE,113,0.0,0.0,66,0.00,,,0.00,WUHU215HW,2013-02-17 18:17:00,
2013-02-17 11:22:00,35.7,25.1,29.88,ESE,113,0.0,0.0,65,0.00,,,0.00,WUHU215HW,2013-02-17 18:22:00,
2013-02-17 11:27:00,35.7,25.5,29.88,ESE,113,0.0,0.0,66,0.00,,,0.00,WUHU215HW,2013-02-17 18:27:00,
2013-02-17 11:32:00,35.7,25.1,29.88,ESE,113,0.0,0.0,65,0.00,,,0.00,WUHU215HW,2013-02-17 18:32:00,
2013-02-17 11:37:00,35.4,24.8,29.88,ESE,113,0.0,0.0,65,0.00,,,0.00,WUHU215HW,2013-02-17 18:37:00,
2013-02-17 11:42:00,35.9,24.5,29.88,ESE,113,0.0,0.0,63,0.00,,,0.00,WUHU215HW,2013-02-17 18:42:00,
2013-02-17 11:47:00,36.5,24.3,29.89,ESE,113,0.0,0.0,61,0.00,,,0.00,WUHU215HW,2013-02-17 18:47:00,
2013-02-17 11:52:00,37.2,24.6,29.88,ESE,113,0.0,0.0,60,0.00,,,0.00,WUHU215HW,2013-02-17 18:52:00,
2013-02-17 11:57:00,38.6,23.7,29.88,NE,45,0.0,0.0,55,0.00,,,0.00,WUHU215HW,2013-02-17 18:57:00,
2013-02-17 12:02:00,39.0,23.6,29.88,NE,45,0.0,0.0,54,0.00,,,0.00,WUHU215HW,2013-02-17 19:02:00,
2013-02-17 12:07:00,38.8,23.9,29.88,NE,45,0.0,0.0,55,0.00,,,0.00,WUHU215HW,2013-02-17 19:07:00,
2013-02-17 12:12:00,38.6,22.9,29.88,NNE,23,0.0,0.0,53,0.00,,,0.00,WUHU215HW,2013-02-17 19:12:00,
2013-02-17 12:17:00,37.9,22.2,29.88,NNE,23,0.0,0.0,53,0.00,,,0.00,WUHU215HW,2013-02-17 19:17:00,
2013-02-17 12:22:00,37.2,21.1,29.88,NNE,23,0.0,0.0,52,0.00,,,0.00,WUHU215HW,2013-02-17 19:22:00,
2013-02-17 12:27:00,37.2,21.6,29.87,NE,45,0.0,0.0,53,0.00,,,0.00,WUHU215HW,2013-02-17 19:27:00,
2013-02-17 12:32:00,37.4,21.7,29.87,NE,45,0.0,0.0,53,0.00,,,0.00,WUHU215HW,2013-02-17 19:32:00,
2013-02-17 12:37:00,37.9,22.2,29.87,NE,45,0.0,0.0,53,0.00,,,0.00,WUHU215HW,2013-02-17 19:37:00,
2013-02-17 12:42:00,37.9,21.8,29.87,NE,45,0.0,0.0,52,0.00,,,0.00,WUHU215HW,2013-02-17 19:42:00,
2013-02-17 12:47:00,37.9,21.8,29.86,NNE,23,0.0,0.0,52,0.00,,,0.00,WUHU215HW,2013-02-17 19:47:00,
2013-02-17 12:52:00,37.9,21.3,29.87,NE,45,0.0,0.0,51,0.00,,,0.00,WUHU215HW,2013-02-17 19:52:00,
2013-02-17 12:57:00,37.2,20.7,29.87,North,0,0.0,0.0,51,0.00,,,0.00,WUHU215HW,2013-02-17 19:57:00,
2013-02-17 13:02:00,36.5,20.1,29.87,North,0,0.0,0.0,51,0.00,,,0.00,WUHU215HW,2013-02-17 20:02:00,
2013-02-17 13:07:00,36.5,20.1,29.86,WNW,293,0.0,0.0,51,0.00,,,0.00,WUHU215HW,2013-02-17 20:07:00,
2013-02-17 13:12:00,37.4,20.4,29.86,NNE,23,0.0,0.0,50,0.00,,,0.00,WUHU215HW,2013-02-17 20:12:00,
2013-02-17 13:17:00,37.9,20.9,29.86,North,0,0.0,0.0,50,0.00,,,0.00,WUHU215HW,2013-02-17 20:17:00,
2013-02-17 13:22:00,38.3,21.2,29.86,NNW,338,0.0,0.0,50,0.00,,,0.00,WUHU215HW,2013-02-17 20:22:00,
2013-02-17 13:27:00,38.8,20.7,29.86,North,0,0.0,0.0,48,0.00,,,0.00,WUHU215HW,2013-02-17 20:27:00,
2013-02-17 13:32:00,38.8,20.2,29.86,NE,45,0.0,0.0,47,0.00,,,0.00,WUHU215HW,2013-02-17 20:32:00,
2013-02-17 13:37:00,39.0,20.3,29.86,NE,45,0.0,0.0,47,0.00,,,0.00,WUHU215HW,2013-02-17 20:37:00,
2013-02-17 13:42:00,39.0,20.3,29.86,NE,45,0.0,0.0,47,0.00,,,0.00,WUHU215HW,2013-02-17 20:42:00,
2013-02-17 13:47:00,39.5,20.3,29.86,WSW,248,0.0,0.0,46,0.00,,,0.00,WUHU215HW,2013-02-17 20:47:00,
2013-02-17 13:52:00,40.1,21.3,29.86,NW,315,0.0,0.0,47,0.00,,,0.00,WUHU215HW,2013-02-17 20:52:00,
2013-02-17 13:57:00,41.5,22.1,29.86,North,0,0.0,0.0,46,0.00,,,0.00,WUHU215HW,2013-02-17 20:57:00,
2013-02-17 14:02:00,41.5,21.0,29.86,NE,45,0.0,0.0,44,0.00,,,0.00,WUHU215HW,2013-02-17 21:02:00,
2013-02-17 14:07:00,41.3,21.4,29.86,WSW,248,0.0,0.0,45,0.00,,,0.00,WUHU215HW,2013-02-17 21:07:00,
2013-02-17 14:12:00,41.5,21.0,29.86,NE,45,0.0,0.0,44,0.00,,,0.00,WUHU215HW,2013-02-17 21:12:00,
2013-02-17 14:17:00,40.8,20.4,29.86,North,0,0.0,0.0,44,0.00,,,0.00,WUHU215HW,2013-02-17 21:17:00,
2013-02-17 14:22:00,40.4,20.1,29.86,North,0,0.0,0.0,44,0.00,,,0.00,WUHU215HW,2013-02-17 21:22:00,
2013-02-17 14:27:00,39.5,19.8,29.86,West,270,0.0,0.0,45,0.00,,,0.00,WUHU215HW,2013-02-17 21:27:00,
2013-02-17 14:32:00,39.3,19.6,29.87,NW,315,0.0,0.0,45,0.00,,,0.00,WUHU215HW,2013-02-17 21:32:00,
2013-02-17 14:37:00,39.3,19.6,29.87,NE,45,0.0,0.0,45,0.00,,,0.00,WUHU215HW,2013-02-17 21:37:00,
2013-02-17 14:42:00,38.8,19.6,29.87,NNW,338,0.0,0.0,46,0.00,,,0.00,WUHU215HW,2013-02-17 21:42:00,
2013-02-17 14:47:00,38.8,19.6,29.87,North,0,0.0,0.0,46,0.00,,,0.00,WUHU215HW,2013-02-17 21:47:00,
2013-02-17 14:52:00,38.8,19.6,29.87,WSW,248,0.0,0.0,46,0.00,,,0.00,WUHU215HW,2013-02-17 21:52:00,
2013-02-17 14:57:00,39.0,19.8,29.87,WSW,248,0.0,0.0,46,0.00,,,0.00,WUHU215HW,2013-02-17 21:57:00,
2013-02-17 15:02:00,39.5,20.3,29.87,NW,315,0.0,0.0,46,0.00,,,0.00,WUHU215HW,2013-02-17 22:02:00,
2013-02-17 15:07:00,39.9,20.6,29.88,West,270,0.0,0.0,46,0.00,,,0.00,WUHU215HW,2013-02-17 22:07:00,
2013-02-17 15:12:00,39.9,20.6,29.87,NW,315,0.0,0.0,46,0.00,,,0.00,WUHU215HW,2013-02-17 22:12:00,
2013-02-17 15:18:00,39.3,20.6,29.87,North,0,0.0,0.0,47,0.00,,,0.00,WUHU215HW,2013-02-17 22:18:00,
2013-02-17 15:23:00,39.0,20.8,29.88,North,0,0.0,0.0,48,0.00,,,0.00,WUHU215HW,2013-02-17 22:23:00,
2013-02-17 15:28:00,38.8,20.7,29.88,NW,315,0.0,0.0,48,0.00,,,0.00,WUHU215HW,2013-02-17 22:28:00,
2013-02-17 15:33:00,38.4,20.4,29.88,NW,315,0.0,0.0,48,0.00,,,0.00,WUHU215HW,2013-02-17 22:33:00,
2013-02-17 15:38:00,38.4,20.9,29.88,West,270,0.0,0.0,49,0.00,,,0.00,WUHU215HW,2013-02-17 22:38:00,
2013-02-17 15:43:00,38.8,21.2,29.88,NNE,23,0.0,0.0,49,0.00,,,0.00,WUHU215HW,2013-02-17 22:43:00,
2013-02-17 15:48:00,38.1,20.6,29.88,West,270,0.0,0.0,49,0.00,,,0.00,WUHU215HW,2013-02-17 22:48:00,
2013-02-17 15:53:00,37.5,20.1,29.88,West,270,0.0,0.0,49,0.00,,,0.00,WUHU215HW,2013-02-17 22:53:00,
2013-02-17 15:58:00,37.0,20.1,29.88,WNW,293,0.0,0.0,50,0.00,,,0.00,WUHU215HW,2013-02-17 22:58:00,
2013-02-17 16:03:00,36.8,20.4,29.88,NW,315,0.0,0.0,51,0.00,,,0.00,WUHU215HW,2013-02-17 23:03:00,
2013-02-17 16:08:00,36.8,20.4,29.88,NW,315,0.0,0.0,51,0.00,,,0.00,WUHU215HW,2013-02-17 23:08:00,
2013-02-17 16:13:00,36.8,19.9,29.88,WNW,293,0.0,0.0,50,0.00,,,0.00,WUHU215HW,2013-02-17 23:13:00,
2013-02-17 16:18:00,37.0,20.1,29.88,NE,45,0.0,0.0,50,0.00,,,0.00,WUHU215HW,2013-02-17 23:18:00,
2013-02-17 16:23:00,37.2,20.7,29.88,NNW,338,0.0,0.0,51,0.00,,,0.00,WUHU215HW,2013-02-17 23:23:00,
2013-02-17 16:28:00,37.5,20.6,29.88,NNW,338,0.0,0.0,50,0.00,,,0.00,WUHU215HW,2013-02-17 23:28:00,
2013-02-17 16:33:00,37.9,20.9,29.88,WNW,293,0.0,0.0,50,0.00,,,0.00,WUHU215HW,2013-02-17 23:33:00,
2013-02-17 16:38:00,37.7,20.8,29.88,NW,315,0.0,0.0,50,0.00,,,0.00,WUHU215HW,2013-02-17 23:38:00,
2013-02-17 16:43:00,37.5,20.6,29.88,NW,315,0.0,0.0,50,0.00,,,0.00,WUHU215HW,2013-02-17 23:43:00,
2013-02-17 16:48:00,37.0,20.1,29.88,NNE,23,0.0,0.0,50,0.00,,,0.00,WUHU215HW,2013-02-17 23:48:00,
2013-02-17 16:53:00,36.6,20.2,29.88,NNE,23,0.0,0.0,51,0.00,,,0.00,WUHU215HW,2013-02-17 23:53:00,
2013-02-17 16:58:00,36.5,20.1,29.88,NW,315,0.0,0.0,51,0.00,,,0.00,WUHU215HW,2013-02-17 23:58:00,
2013-02-17 17:03:00,36.3,19.9,29.88,NW,315,0.0,0.0,51,0.00,,,0.00,WUHU215HW,2013-02-18 00:03:00,
2013-02-17 17:08:00,36.3,19.9,29.88,NW,315,0.0,0.0,51,0.00,,,0.00,WUHU215HW,2013-02-18 00:08:00,
2013-02-17 17:13:00,36.3,19.9,29.88,NW,315,0.0,0.0,51,0.00,,,0.00,WUHU215HW,2013-02-18 00:13:00,
2013-02-17 17:18:00,36.3,19.9,29.88,WNW,293,0.0,0.0,51,0.00,,,0.00,WUHU215HW,2013-02-18 00:18:00,
2013-02-17 17:23:00,36.3,19.5,29.88,NNW,338,0.0,0.0,50,0.00,,,0.00,WUHU215HW,2013-02-18 00:23:00,
2013-02-17 17:28:00,36.1,19.3,29.88,NW,315,0.0,0.0,50,0.00,,,0.00,WUHU215HW,2013-02-18 00:28:00,
2013-02-17 17:33:00,35.7,19.4,29.88,NNW,338,0.0,0.0,51,0.00,,,0.00,WUHU215HW,2013-02-18 00:33:00,
2013-02-17 17:38:00,35.4,19.1,29.88,NW,315,0.0,0.0,51,0.00,,,0.00,WUHU215HW,2013-02-18 00:38:00,
2013-02-17 17:43:00,35.0,18.7,29.88,North,0,0.0,0.0,51,0.00,,,0.00,WUHU215HW,2013-02-18 00:43:00,
2013-02-17 17:48:00,34.5,18.6,29.88,West,270,0.0,0.0,52,0.00,,,0.00,WUHU215HW,2013-02-18 00:48:00,
2013-02-17 17:53:00,34.3,18.4,29.88,NE,45,0.0,0.0,52,0.00,,,0.00,WUHU215HW,2013-02-18 00:53:00,
2013-02-17 17:58:00,33.9,18.1,29.89,NNW,338,0.0,0.0,52,0.00,,,0.00,WUHU215HW,2013-02-18 00:58:00,
2013-02-17 18:03:00,33.6,18.1,29.89,NW,315,0.0,0.0,53,0.00,,,0.00,WUHU215HW,2013-02-18 01:03:00,
2013-02-17 18:08:00,33.0,17.7,29.89,NW,315,0.0,0.0,53,0.00,,,0.00,WUHU215HW,2013-02-18 01:08:00,
2013-02-17 18:13:00,32.9,17.5,29.89,WNW,293,0.0,0.0,53,0.00,,,0.00,WUHU215HW,2013-02-18 01:13:00,
2013-02-17 18:18:00,32.3,17.4,29.89,WNW,293,0.0,0.0,54,0.00,,,0.00,WUHU215HW,2013-02-18 01:18:00,
2013-02-17 18:23:00,32.1,17.3,29.89,WNW,293,0.0,0.0,54,0.00,,,0.00,WUHU215HW,2013-02-18 01:23:00,
2013-02-17 18:28:00,31.6,17.2,29.89,WNW,293,0.0,0.0,55,0.00,,,0.00,WUHU215HW,2013-02-18 01:28:00,
2013-02-17 18:33:00,31.1,17.1,29.90,WNW,293,0.0,0.0,56,0.00,,,0.00,WUHU215HW,2013-02-18 01:33:00,
2013-02-17 18:38:00,30.7,16.8,29.89,WNW,293,0.0,0.0,56,0.00,,,0.00,WUHU215HW,2013-02-18 01:38:00,
2013-02-17 18:43:00,30.3,16.4,29.90,WNW,293,0.0,0.0,56,0.00,,,0.00,WUHU215HW,2013-02-18 01:43:00,
2013-02-17 18:48:00,30.0,16.5,29.90,WNW,293,0.0,0.0,57,0.00,,,0.00,WUHU215HW,2013-02-18 01:48:00,
2013-02-17 18:53:00,30.0,16.9,29.90,WNW,293,0.0,0.0,58,0.00,,,0.00,WUHU215HW,2013-02-18 01:53:00,
2013-02-17 18:58:00,29.6,16.6,29.90,WNW,293,0.0,0.0,58,0.00,,,0.00,WUHU215HW,2013-02-18 01:58:00,
2013-02-17 19:03:00,29.4,16.8,29.90,WNW,293,0.0,0.0,59,0.00,,,0.00,WUHU215HW,2013-02-18 02:03:00,
2013-02-17 19:08:00,28.9,16.4,29.91,WNW,293,0.0,0.0,59,0.00,,,0.00,WUHU215HW,2013-02-18 02:08:00,
2013-02-17 19:13:00,28.7,16.6,29.90,WNW,293,0.0,0.0,60,0.00,,,0.00,WUHU215HW,2013-02-18 02:13:00,
2013-02-17 19:18:00,28.2,16.5,29.91,WNW,293,0.0,0.0,61,0.00,,,0.00,WUHU215HW,2013-02-18 02:18:00,
2013-02-17 19:23:00,28.0,16.7,29.91,West,270,0.0,0.0,62,0.00,,,0.00,WUHU215HW,2013-02-18 02:23:00,
2013-02-17 19:28:00,27.8,16.5,29.91,West,270,0.0,0.0,62,0.00,,,0.00,WUHU215HW,2013-02-18 02:28:00,
2013-02-17 19:33:00,27.6,16.3,29.90,West,270,0.0,0.0,62,0.00,,,0.00,WUHU215HW,2013-02-18 02:33:00,
2013-02-17 19:38:00,27.3,16.3,29.91,West,270,0.0,0.0,63,0.00,,,0.00,WUHU215HW,2013-02-18 02:38:00,
2013-02-17 19:43:00,27.1,16.1,29.91,West,270,0.0,0.0,63,0.00,,,0.00,WUHU215HW,2013-02-18 02:43:00,
2013-02-17 19:48:00,26.9,16.3,29.90,West,270,0.0,0.0,64,0.00,,,0.00,WUHU215HW,2013-02-18 02:48:00,
2013-02-17 19:53:00,26.7,16.1,29.91,West,270,0.0,0.0,64,0.00,,,0.00,WUHU215HW,2013-02-18 02:53:00,
2013-02-17 19:58:00,26.7,16.1,29.91,West,270,0.0,0.0,64,0.00,,,0.00,WUHU215HW,2013-02-18 02:58:00,
2013-02-17 20:03:00,26.4,16.1,29.91,West,270,0.0,0.0,65,0.00,,,0.00,WUHU215HW,2013-02-18 03:03:00,
2013-02-17 20:08:00,26.4,16.1,29.91,West,270,0.0,0.0,65,0.00,,,0.00,WUHU215HW,2013-02-18 03:08:00,
2013-02-17 20:13:00,26.4,16.1,29.91,West,270,0.0,0.0,65,0.00,,,0.00,WUHU215HW,2013-02-18 03:13:00,
2013-02-17 20:18:00,25.8,15.6,29.92,West,270,0.0,0.0,65,0.00,,,0.00,WUHU215HW,2013-02-18 03:18:00,
2013-02-17 20:23:00,25.8,15.9,29.92,West,270,0.0,0.0,66,0.00,,,0.00,WUHU215HW,2013-02-18 03:23:00,
2013-02-17 20:28:00,25.1,15.3,29.91,West,270,0.0,0.0,66,0.00,,,0.00,WUHU215HW,2013-02-18 03:28:00,
2013-02-17 20:33:00,24.9,15.1,29.91,West,270,0.0,0.0,66,0.00,,,0.00,WUHU215HW,2013-02-18 03:33:00,
2013-02-17 20:38:00,24.6,14.7,29.91,West,270,0.0,0.0,66,0.00,,,0.00,WUHU215HW,2013-02-18 03:38:00,
2013-02-17 20:43:00,24.4,14.9,29.91,West,270,0.0,0.0,67,0.00,,,0.00,WUHU215HW,2013-02-18 03:43:00,
2013-02-17 20:48:00,24.4,14.9,29.91,West,270,0.0,0.0,67,0.00,,,0.00,WUHU215HW,2013-02-18 03:48:00,
2013-02-17 20:53:00,24.2,15.1,29.92,West,270,0.0,0.0,68,0.00,,,0.00,WUHU215HW,2013-02-18 03:53:00,
2013-02-17 20:58:00,24.0,14.9,29.91,West,270,0.0,0.0,68,0.00,,,0.00,WUHU215HW,2013-02-18 03:58:00,
2013-02-17 21:03:00,24.0,14.9,29.91,West,270,0.0,0.0,68,0.00,,,0.00,WUHU215HW,2013-02-18 04:03:00,
2013-02-17 21:08:00,23.7,14.6,29.91,West,270,0.0,0.0,68,0.00,,,0.00,WUHU215HW,2013-02-18 04:08:00,
2013-02-17 21:13:00,23.5,14.4,29.91,West,270,0.0,0.0,68,0.00,,,0.00,WUHU215HW,2013-02-18 04:13:00,
2013-02-17 21:18:00,23.3,14.6,29.91,West,270,0.0,0.0,69,0.00,,,0.00,WUHU215HW,2013-02-18 04:18:00,
2013-02-17 21:23:00,23.3,14.6,29.91,West,270,0.0,0.0,69,0.00,,,0.00,WUHU215HW,2013-02-18 04:23:00,
2013-02-17 21:28:00,23.5,15.2,29.91,West,270,0.0,0.0,70,0.00,,,0.00,WUHU215HW,2013-02-18 04:28:00,
2013-02-17 21:33:00,23.3,14.6,29.92,West,270,0.0,0.0,69,0.00,,,0.00,WUHU215HW,2013-02-18 04:33:00,
2013-02-17 21:38:00,23.1,14.5,29.91,West,270,0.0,0.0,69,0.00,,,0.00,WUHU215HW,2013-02-18 04:38:00,
2013-02-17 21:43:00,22.8,14.8,29.92,West,270,0.0,0.0,71,0.00,,,0.00,WUHU215HW,2013-02-18 04:43:00,
2013-02-17 21:48:00,22.8,14.8,29.92,West,270,0.0,0.0,71,0.00,,,0.00,WUHU215HW,2013-02-18 04:48:00,
2013-02-17 21:53:00,22.6,14.8,29.92,West,270,0.0,0.0,71,0.00,,,0.00,WUHU215HW,2013-02-18 04:53:00,
2013-02-17 21:58:00,22.2,14.3,29.92,West,270,0.0,0.0,71,0.00,,,0.00,WUHU215HW,2013-02-18 04:58:00,
2013-02-17 22:00:00,22.2,14.3,29.92,West,270,0.0,0.0,71,0.00,,,0.00,WUHU215HW,2013-02-18 05:00:00,
2013-02-17 22:01:00,22.2,14.3,29.92,West,270,0.0,0.0,71,0.00,,,0.00,WUHU215HW,2013-02-18 05:01:00,
2013-02-17 22:06:00,22.2,14.3,29.92,West,270,0.0,0.0,71,0.00,,,0.00,WUHU215HW,2013-02-18 05:06:00,
2013-02-17 22:11:00,21.9,14.2,29.93,West,270,0.0,0.0,72,0.00,,,0.00,WUHU215HW,2013-02-18 05:11:00,
2013-02-17 22:16:00,21.7,14.0,29.92,West,270,0.0,0.0,72,0.00,,,0.00,WUHU215HW,2013-02-18 05:16:00,
2013-02-17 22:21:00,21.7,14.0,29.92,West,270,0.0,0.0,72,0.00,,,0.00,WUHU215HW,2013-02-18 05:21:00,
2013-02-17 22:26:00,21.9,14.5,29.92,West,270,0.0,0.0,73,0.00,,,0.00,WUHU215HW,2013-02-18 05:26:00,
2013-02-17 22:31:00,21.9,14.5,29.93,West,270,0.0,0.0,73,0.00,,,0.00,WUHU215HW,2013-02-18 05:31:00,
2013-02-17 22:36:00,21.7,14.3,29.92,West,270,0.0,0.0,73,0.00,,,0.00,WUHU215HW,2013-02-18 05:36:00,
2013-02-17 22:41:00,21.5,14.3,29.92,West,270,0.0,0.0,73,0.00,,,0.00,WUHU215HW,2013-02-18 05:41:00,
2013-02-17 22:43:00,21.5,14.1,29.92,North,0,0.0,0.0,73,0.00,,,0.00,WUHU215HW,2013-02-18 05:43:00,
2013-02-17 22:48:00,21.0,13.6,29.92,West,270,0.0,0.0,73,0.00,,,0.00,WUHU215HW,2013-02-18 05:48:00,
2013-02-17 22:53:00,21.0,13.6,29.93,West,270,0.0,0.0,73,0.00,,,0.00,WUHU215HW,2013-02-18 05:53:00,
2013-02-17 22:58:00,21.0,13.6,29.92,West,270,0.0,0.0,73,0.00,,,0.00,WUHU215HW,2013-02-18 05:58:00,
2013-02-17 23:03:00,20.6,13.2,29.92,West,270,0.0,0.0,73,0.00,,,0.00,WUHU215HW,2013-02-18 06:03:00,
2013-02-17 23:08:00,20.4,13.4,29.93,West,270,0.0,0.0,74,0.00,,,0.00,WUHU215HW,2013-02-18 06:08:00,
2013-02-17 23:13:00,20.4,13.7,29.93,West,270,0.0,0.0,74,0.00,,,0.00,WUHU215HW,2013-02-18 06:13:00,
2013-02-17 23:18:00,20.4,13.7,29.93,West,270,0.0,0.0,75,0.00,,,0.00,WUHU215HW,2013-02-18 06:18:00,
2013-02-17 23:23:00,20.4,13.7,29.93,West,270,0.0,0.0,75,0.00,,,0.00,WUHU215HW,2013-02-18 06:23:00,
2013-02-17 23:28:00,20.4,13.7,29.93,West,270,0.0,0.0,75,0.00,,,0.00,WUHU215HW,2013-02-18 06:28:00,
2013-02-17 23:33:00,19.9,12.8,29.92,West,270,0.0,0.0,74,0.00,,,0.00,WUHU215HW,2013-02-18 06:33:00,
2013-02-17 23:38:00,19.7,13.0,29.92,West,270,0.0,0.0,75,0.00,,,0.00,WUHU215HW,2013-02-18 06:38:00,
2013-02-17 23:43:00,19.5,12.8,29.92,West,270,0.0,0.0,75,0.00,,,0.00,WUHU215HW,2013-02-18 06:43:00,
2013-02-17 23:48:00,19.4,12.6,29.93,West,270,0.0,0.0,75,0.00,,,0.00,WUHU215HW,2013-02-18 06:48:00,
2013-02-17 23:53:00,19.2,12.4,29.92,West,270,0.0,0.0,75,0.00,,,0.00,WUHU215HW,2013-02-18 06:53:00,
2013-02-17 23:58:00,19.4,12.9,29.92,West,270,0.0,0.0,76,0.00,,,0.00,WUHU215HW,2013-02-18 06:58:00,